createdAt,value
2022-10-13T00:01:12.272Z,11.20
2022-10-13T00:03:40.419Z,11.20
2022-10-13T00:06:09.701Z,11.13
2022-10-13T00:08:38.275Z,11.02
2022-10-13T00:11:17.108Z,10.91
2022-10-13T00:13:45.703Z,10.83
2022-10-13T00:16:14.819Z,10.80
2022-10-13T00:18:42.591Z,10.83
2022-10-13T00:21:12.392Z,10.83
2022-10-13T00:23:39.952Z,10.87
2022-10-13T00:26:09.352Z,10.83
2022-10-13T00:28:36.638Z,10.75
2022-10-13T00:31:04.172Z,10.67
2022-10-13T00:33:31.176Z,10.67
2022-10-13T00:35:58.074Z,10.63
2022-10-13T00:38:25.074Z,10.57
2022-10-13T00:40:56.251Z,10.58
2022-10-13T00:43:47.388Z,10.54
2022-10-13T00:46:15.633Z,10.49
2022-10-13T00:48:45.515Z,10.49
2022-10-13T00:51:14.882Z,10.47
2022-10-13T00:53:43.728Z,10.40
2022-10-13T00:56:14.205Z,10.25
2022-10-13T00:58:44.135Z,10.17
2022-10-13T01:01:11.304Z,10.18
2022-10-13T01:03:38.917Z,10.18
2022-10-13T01:06:07.359Z,10.15
2022-10-13T01:08:34.769Z,10.15
2022-10-13T01:11:26.341Z,10.18
2022-10-13T01:14:23.751Z,10.24
2022-10-13T01:17:04.483Z,10.26
2022-10-13T01:19:51.782Z,10.26
2022-10-13T01:22:24.696Z,10.28
2022-10-13T01:25:03.847Z,10.12
2022-10-13T01:27:57.152Z,10.04
2022-10-13T01:30:24.233Z,10.02
2022-10-13T01:32:56.723Z,9.97
2022-10-13T01:35:39.071Z,9.99
2022-10-13T01:38:15.731Z,9.93
2022-10-13T01:40:45.297Z,10.00
2022-10-13T01:43:18.697Z,10.08
2022-10-13T01:46:01.864Z,10.13
2022-10-13T01:48:29.722Z,10.20
2022-10-13T01:51:00.020Z,10.22
2022-10-13T01:53:28.883Z,10.23
2022-10-13T01:55:58.923Z,10.18
2022-10-13T01:58:29.864Z,10.09
2022-10-13T02:01:09.541Z,10.07
2022-10-13T02:03:56.699Z,10.04
2022-10-13T02:06:39.382Z,10.07
2022-10-13T02:09:27.386Z,10.06
2022-10-13T02:12:10.510Z,10.02
2022-10-13T02:14:42.463Z,10.03
2022-10-13T02:17:10.254Z,10.06
2022-10-13T02:19:40.322Z,10.06
2022-10-13T02:22:09.867Z,10.04
2022-10-13T02:24:37.124Z,10.07
2022-10-13T02:27:06.102Z,10.03
2022-10-13T02:29:33.318Z,10.02
2022-10-13T02:32:00.676Z,9.94
2022-10-13T02:34:27.529Z,9.87
2022-10-13T02:36:54.911Z,9.88
2022-10-13T02:39:21.873Z,9.86
2022-10-13T02:41:48.854Z,9.85
2022-10-13T02:44:15.779Z,9.87
2022-10-13T02:46:42.663Z,9.87
2022-10-13T02:49:10.487Z,9.86
2022-10-13T02:51:40.199Z,9.78
2022-10-13T02:54:07.793Z,9.75
2022-10-13T02:56:34.649Z,9.81
2022-10-13T02:59:01.578Z,9.90
2022-10-13T03:01:28.464Z,9.97
2022-10-13T03:03:55.554Z,10.06
2022-10-13T03:06:22.802Z,10.09
2022-10-13T03:08:49.706Z,10.09
2022-10-13T03:11:16.763Z,10.09
2022-10-13T03:13:43.644Z,10.05
2022-10-13T03:16:10.545Z,10.05
2022-10-13T03:18:37.463Z,9.94
2022-10-13T03:21:06.731Z,9.78
2022-10-13T03:23:34.193Z,9.73
2022-10-13T03:26:01.647Z,9.67
2022-10-13T03:28:29.033Z,9.65
2022-10-13T03:31:10.847Z,9.72
2022-10-13T03:33:37.736Z,9.77
2022-10-13T03:36:07.598Z,9.84
2022-10-13T03:38:35.674Z,9.88
2022-10-13T03:41:14.156Z,9.92
2022-10-13T03:43:42.010Z,9.92
2022-10-13T03:46:10.862Z,9.92
2022-10-13T03:48:37.893Z,9.94
2022-10-13T03:51:06.686Z,9.94
2022-10-13T03:53:34.190Z,9.92
2022-10-13T03:56:01.553Z,9.95
2022-10-13T03:58:31.735Z,9.92
2022-10-13T04:01:05.808Z,9.92
2022-10-13T04:03:33.841Z,9.88
2022-10-13T04:06:05.432Z,9.89
2022-10-13T04:08:33.923Z,9.85
2022-10-13T04:11:07.152Z,9.81
2022-10-13T04:13:34.903Z,9.72
2022-10-13T04:16:17.097Z,9.67
2022-10-13T04:18:45.150Z,9.62
2022-10-13T04:21:14.961Z,9.60
2022-10-13T04:23:42.671Z,9.59
2022-10-13T04:26:16.994Z,9.66
2022-10-13T04:28:45.128Z,9.72
2022-10-13T04:31:12.266Z,9.77
2022-10-13T04:33:39.286Z,9.73
2022-10-13T04:36:08.014Z,9.55
2022-10-13T04:38:34.972Z,9.54
2022-10-13T04:41:06.280Z,9.46
2022-10-13T04:43:33.883Z,9.44
2022-10-13T04:46:08.250Z,9.43
2022-10-13T04:48:35.281Z,9.47
2022-10-13T04:51:05.007Z,9.56
2022-10-13T04:53:32.788Z,9.63
2022-10-13T04:56:05.583Z,9.73
2022-10-13T04:58:32.770Z,9.80
2022-10-13T05:01:02.287Z,9.82
2022-10-13T05:03:29.821Z,9.77
2022-10-13T05:05:57.323Z,9.81
2022-10-13T05:08:24.646Z,9.79
2022-10-13T05:10:58.806Z,9.89
2022-10-13T05:13:26.861Z,10.06
2022-10-13T05:15:57.746Z,10.23
2022-10-13T05:18:25.309Z,10.35
2022-10-13T05:20:52.167Z,10.46
2022-10-13T05:23:19.142Z,10.58
2022-10-13T05:25:46.006Z,10.67
2022-10-13T05:28:14.995Z,10.83
2022-10-13T05:30:41.995Z,10.92
2022-10-13T05:33:09.378Z,11.07
2022-10-13T05:35:36.237Z,11.24
2022-10-13T05:38:03.158Z,11.36
2022-10-13T05:40:30.104Z,11.49
2022-10-13T05:43:00.636Z,11.58
2022-10-13T05:45:29.978Z,11.75
2022-10-13T05:47:56.871Z,11.84
2022-10-13T05:50:24.104Z,12.05
2022-10-13T05:52:51.945Z,12.11
2022-10-13T05:55:19.505Z,12.26
2022-10-13T05:57:51.423Z,12.45
2022-10-13T06:00:20.548Z,12.61
2022-10-13T06:02:58.229Z,12.82
2022-10-13T06:05:26.568Z,12.92
2022-10-13T06:07:56.183Z,13.09
2022-10-13T06:10:23.594Z,13.22
2022-10-13T06:12:50.831Z,13.18
2022-10-13T06:15:17.922Z,13.38
2022-10-13T06:17:44.820Z,13.55
2022-10-13T06:20:11.850Z,13.71
2022-10-13T06:22:39.517Z,13.75
2022-10-13T06:25:07.519Z,13.94
2022-10-13T06:27:34.719Z,14.27
2022-10-13T06:30:02.045Z,14.10
2022-10-13T06:32:29.098Z,14.50
2022-10-13T06:34:55.981Z,14.30
2022-10-13T06:37:27.089Z,14.38
2022-10-13T06:39:54.493Z,14.37
2022-10-13T06:42:21.881Z,14.33
2022-10-13T06:45:06.159Z,14.31
2022-10-13T06:47:33.064Z,14.17
2022-10-13T06:49:59.935Z,14.34
2022-10-13T06:52:26.826Z,14.38
2022-10-13T06:54:53.700Z,14.29
2022-10-13T06:57:20.602Z,14.36
2022-10-13T06:59:47.486Z,14.51
2022-10-13T07:02:14.395Z,14.40
2022-10-13T07:04:41.295Z,14.57
2022-10-13T07:07:08.214Z,14.54
2022-10-13T07:09:35.052Z,14.83
2022-10-13T07:12:01.929Z,14.62
2022-10-13T07:14:28.998Z,14.70
2022-10-13T07:16:55.836Z,14.98
2022-10-13T07:19:22.713Z,14.91
2022-10-13T07:21:49.914Z,14.89
2022-10-13T07:24:16.887Z,15.02
2022-10-13T07:26:43.772Z,15.26
2022-10-13T07:29:10.804Z,15.00
2022-10-13T07:31:37.743Z,15.25
2022-10-13T07:34:05.642Z,15.73
2022-10-13T07:36:33.507Z,15.60
2022-10-13T07:39:01.345Z,15.24
2022-10-13T07:41:28.448Z,15.77
2022-10-13T07:43:59.124Z,16.04
2022-10-13T07:46:26.094Z,16.35
2022-10-13T07:48:53.992Z,16.19
2022-10-13T07:51:22.192Z,15.86
2022-10-13T07:53:49.945Z,16.56
2022-10-13T07:56:17.160Z,16.66
2022-10-13T07:58:47.588Z,16.50
2022-10-13T08:01:15.418Z,16.64
2022-10-13T08:03:45.766Z,16.71
2022-10-13T08:06:18.712Z,16.47
2022-10-13T08:08:46.193Z,16.71
2022-10-13T08:11:17.667Z,16.87
2022-10-13T08:13:52.194Z,16.80
2022-10-13T08:16:22.600Z,17.30
2022-10-13T08:18:49.918Z,17.35
2022-10-13T08:21:56.951Z,17.20
2022-10-13T08:24:16.375Z,17.57
2022-10-13T08:26:44.949Z,17.79
2022-10-13T08:29:22.526Z,17.71
2022-10-13T08:31:51.116Z,18.17
2022-10-13T08:34:18.309Z,18.18
2022-10-13T08:36:45.199Z,18.30
2022-10-13T08:39:12.306Z,17.61
2022-10-13T08:41:43.907Z,18.28
2022-10-13T08:47:21.794Z,18.51
2022-10-13T08:49:48.889Z,18.90
2022-10-13T08:52:22.042Z,18.75
2022-10-13T08:54:50.293Z,18.87
2022-10-13T08:57:18.267Z,19.13
2022-10-13T08:59:46.095Z,18.02
2022-10-13T09:02:22.015Z,17.99
2022-10-13T09:04:54.243Z,18.41
2022-10-13T09:07:31.561Z,18.55
2022-10-13T09:09:58.682Z,18.88
2022-10-13T09:12:27.960Z,18.96
2022-10-13T09:15:05.957Z,19.02
2022-10-13T09:17:34.640Z,19.04
2022-10-13T09:20:07.809Z,18.73
2022-10-13T09:22:37.847Z,18.76
2022-10-13T09:25:07.538Z,17.83
2022-10-13T09:27:52.225Z,18.06
2022-10-13T09:30:40.032Z,17.51
2022-10-13T09:33:11.908Z,17.77
2022-10-13T09:35:48.117Z,18.34
2022-10-13T09:38:19.946Z,17.59
2022-10-13T09:41:17.340Z,17.30
2022-10-13T10:16:31.545Z,17.30
2022-10-13T10:19:00.678Z,17.93
2022-10-13T10:21:43.382Z,18.32
2022-10-13T10:24:39.104Z,18.68
2022-10-13T10:27:14.061Z,18.12
2022-10-13T10:29:54.215Z,17.93
2022-10-13T10:32:26.733Z,18.44
2022-10-13T10:34:55.827Z,18.72
2022-10-13T10:37:56.545Z,18.85
2022-10-13T10:40:37.195Z,19.06
2022-10-13T10:43:39.449Z,18.84
2022-10-13T10:46:23.055Z,19.09
2022-10-13T10:48:54.661Z,19.03
2022-10-13T10:51:26.726Z,19.14
2022-10-13T10:54:25.559Z,18.77
2022-10-13T10:57:13.898Z,19.05
2022-10-13T10:59:59.883Z,18.95
2022-10-13T11:02:53.755Z,18.84
2022-10-13T11:05:21.109Z,18.71
2022-10-13T11:07:47.928Z,18.69
2022-10-13T11:10:16.476Z,18.76
2022-10-13T11:12:52.418Z,18.82
2022-10-13T11:15:22.019Z,18.87
2022-10-13T11:17:48.980Z,18.87
2022-10-13T11:20:21.398Z,18.95
2022-10-13T11:23:00.230Z,18.92
2022-10-13T11:25:42.063Z,19.06
2022-10-13T11:28:21.187Z,19.10
2022-10-13T11:30:54.990Z,19.00
2022-10-13T11:33:34.620Z,19.05
2022-10-13T11:36:32.786Z,19.16
2022-10-13T11:39:28.649Z,18.93
2022-10-13T11:42:04.430Z,18.64
2022-10-13T11:44:57.097Z,18.86
2022-10-13T11:50:48.666Z,18.28
2022-10-13T11:53:41.810Z,18.52
2022-10-13T11:56:31.890Z,18.44
2022-10-13T11:58:58.763Z,18.32
2022-10-13T12:01:25.691Z,18.42
2022-10-13T12:03:52.578Z,18.20
2022-10-13T12:06:33.859Z,18.28
2022-10-13T12:09:04.052Z,18.38
2022-10-13T12:11:39.032Z,18.61
2022-10-13T12:14:21.191Z,18.78
2022-10-13T12:17:00.232Z,18.98
2022-10-13T12:19:29.677Z,18.47
2022-10-13T12:22:00.811Z,18.65
2022-10-13T12:24:30.273Z,18.76
2022-10-13T12:26:58.553Z,18.75
2022-10-13T12:29:30.176Z,18.57
2022-10-13T12:31:59.677Z,18.59
2022-10-13T12:34:31.962Z,18.65
2022-10-13T12:37:00.012Z,18.85
2022-10-13T12:39:29.659Z,17.98
2022-10-13T12:41:57.667Z,17.66
2022-10-13T12:44:28.326Z,17.87
2022-10-13T12:47:03.981Z,18.04
2022-10-13T12:49:35.828Z,17.94
2022-10-13T12:52:25.062Z,17.93
2022-10-13T12:54:56.179Z,18.04
2022-10-13T12:57:38.132Z,18.23
2022-10-13T13:00:20.524Z,18.01
2022-10-13T13:02:51.504Z,17.96
2022-10-13T13:05:35.191Z,18.11
2022-10-13T13:08:23.233Z,17.76
2022-10-13T13:10:56.762Z,17.87
2022-10-13T13:13:24.426Z,17.38
2022-10-13T13:15:51.504Z,17.59
2022-10-13T13:18:27.501Z,17.54
2022-10-13T13:20:55.314Z,17.17
2022-10-13T13:23:23.677Z,17.25
2022-10-13T13:26:08.081Z,17.65
2022-10-13T13:28:35.009Z,17.12
2022-10-13T13:31:03.571Z,17.39
2022-10-13T13:33:30.515Z,17.28
2022-10-13T13:35:58.891Z,17.61
2022-10-13T13:38:25.963Z,17.70
2022-10-13T13:40:52.895Z,17.72
2022-10-13T13:43:19.780Z,17.19
2022-10-13T13:45:46.689Z,17.49
2022-10-13T13:48:13.684Z,17.58
2022-10-13T13:50:40.869Z,17.61
2022-10-13T13:53:07.895Z,17.35
2022-10-13T13:55:35.916Z,17.45
2022-10-13T13:58:05.346Z,17.11
2022-10-13T14:00:32.245Z,17.46
2022-10-13T14:02:59.224Z,16.85
2022-10-13T14:05:26.190Z,16.91
2022-10-13T14:07:58.095Z,17.19
2022-10-13T14:10:26.245Z,17.00
2022-10-13T14:12:53.261Z,17.25
2022-10-13T14:15:20.105Z,17.18
2022-10-13T14:17:47.003Z,16.97
2022-10-13T14:20:13.898Z,16.98
2022-10-13T14:22:41.513Z,16.90
2022-10-13T14:25:08.898Z,16.47
2022-10-13T14:27:37.162Z,16.50
2022-10-13T14:30:08.878Z,16.51
2022-10-13T14:32:38.721Z,16.72
2022-10-13T14:35:06.136Z,16.69
2022-10-13T14:37:33.949Z,16.35
2022-10-13T14:40:01.275Z,16.33
2022-10-13T14:42:28.476Z,16.10
2022-10-13T14:44:55.339Z,15.87
2022-10-13T14:47:22.720Z,15.63
2022-10-13T14:49:49.834Z,16.08
2022-10-13T14:52:16.738Z,15.97
2022-10-13T14:54:44.968Z,15.92
2022-10-13T14:57:16.136Z,15.89
2022-10-13T14:59:44.099Z,16.02
2022-10-13T15:02:11.923Z,16.24
2022-10-13T15:04:41.507Z,16.26
2022-10-13T15:07:08.815Z,16.27
2022-10-13T15:09:53.245Z,16.14
2022-10-13T15:12:23.606Z,15.80
2022-10-13T15:14:50.675Z,15.88
2022-10-13T15:17:17.570Z,16.08
2022-10-13T15:19:44.517Z,15.84
2022-10-13T15:22:11.776Z,16.05
2022-10-13T15:24:38.635Z,15.75
2022-10-13T15:27:05.537Z,15.69
2022-10-13T15:29:32.426Z,15.87
2022-10-13T15:32:11.779Z,15.61
2022-10-13T15:34:40.172Z,15.71
2022-10-13T15:37:07.761Z,15.41
2022-10-13T15:39:34.835Z,15.50
2022-10-13T15:42:02.055Z,15.61
2022-10-13T15:44:50.960Z,15.68
2022-10-13T15:47:18.319Z,15.35
2022-10-13T15:49:45.218Z,15.34
2022-10-13T15:52:12.141Z,15.42
2022-10-13T15:54:39.061Z,15.51
2022-10-13T15:57:06.009Z,15.58
2022-10-13T15:59:33.048Z,15.58
2022-10-13T16:01:59.938Z,15.19
2022-10-13T16:04:26.778Z,15.43
2022-10-13T16:06:53.845Z,15.20
2022-10-13T16:09:20.744Z,15.32
2022-10-13T16:11:47.698Z,15.11
2022-10-13T16:14:14.658Z,15.28
2022-10-13T16:16:41.524Z,15.35
2022-10-13T16:19:08.685Z,15.07
2022-10-13T16:21:35.716Z,15.01
2022-10-13T16:24:05.247Z,15.15
2022-10-13T16:26:32.220Z,15.21
2022-10-13T16:28:59.177Z,15.07
2022-10-13T16:31:26.247Z,15.13
2022-10-13T16:33:53.104Z,15.15
2022-10-13T16:36:20.488Z,14.78
2022-10-13T16:38:52.644Z,14.53
2022-10-13T16:41:20.050Z,14.75
2022-10-13T16:43:48.034Z,14.92
2022-10-13T16:46:17.623Z,14.98
2022-10-13T16:48:45.762Z,14.83
2022-10-13T16:51:15.609Z,14.96
2022-10-13T16:53:43.111Z,14.84
2022-10-13T16:56:10.120Z,14.82
2022-10-13T16:58:37.071Z,14.98
2022-10-13T17:01:09.736Z,14.98
2022-10-13T17:03:38.054Z,14.70
2022-10-13T17:06:06.147Z,14.54
2022-10-13T17:08:33.552Z,14.74
2022-10-13T17:11:02.855Z,14.45
2022-10-13T17:13:32.387Z,14.52
2022-10-13T17:15:59.685Z,14.74
2022-10-13T17:18:27.870Z,14.27
2022-10-13T17:21:00.886Z,14.27
2022-10-13T17:23:29.404Z,14.50
2022-10-13T17:26:00.962Z,13.61
2022-10-13T17:28:27.901Z,13.32
2022-10-13T17:31:11.961Z,13.15
2022-10-13T17:33:40.593Z,12.97
2022-10-13T17:36:14.833Z,12.97
2022-10-13T17:38:42.756Z,13.36
2022-10-13T17:41:11.368Z,13.56
2022-10-13T17:43:47.995Z,13.11
2022-10-13T17:49:02.788Z,13.02
2022-10-13T17:51:29.761Z,13.07
2022-10-13T17:53:59.045Z,12.74
2022-10-13T17:56:26.058Z,12.85
2022-10-13T17:58:53.053Z,12.85
2022-10-13T18:01:22.920Z,12.96
2022-10-13T18:04:03.004Z,13.16
2022-10-13T18:06:37.916Z,13.45
2022-10-13T18:09:10.925Z,13.21
2022-10-13T18:11:38.869Z,12.87
2022-10-13T18:14:06.343Z,12.43
2022-10-13T18:16:33.864Z,12.18
2022-10-13T18:19:01.169Z,12.10
2022-10-13T18:21:28.457Z,12.59
2022-10-13T18:23:57.616Z,12.84
2022-10-13T18:26:25.724Z,13.10
2022-10-13T18:28:53.210Z,13.36
2022-10-13T18:31:22.878Z,13.28
2022-10-13T18:33:51.993Z,13.64
2022-10-13T18:36:30.181Z,13.57
2022-10-13T18:39:04.533Z,13.61
2022-10-13T18:41:32.834Z,13.49
2022-10-13T18:43:59.949Z,13.38
2022-10-13T18:46:27.338Z,13.29
2022-10-13T18:48:54.270Z,12.98
2022-10-13T18:51:21.317Z,12.90
2022-10-13T18:53:50.665Z,12.82
2022-10-13T18:56:25.322Z,12.70
2022-10-13T18:58:58.412Z,12.73
2022-10-13T19:01:29.201Z,12.67
2022-10-13T19:03:57.017Z,12.64
2022-10-13T19:06:27.217Z,12.34
2022-10-13T19:09:03.734Z,12.27
2022-10-13T19:11:31.155Z,12.39
2022-10-13T19:13:59.525Z,12.40
2022-10-13T19:16:29.565Z,12.34
2022-10-13T19:18:57.284Z,12.42
2022-10-13T19:21:24.709Z,12.39
2022-10-13T19:23:51.805Z,12.36
2022-10-13T19:26:28.423Z,12.80
2022-10-13T19:29:16.240Z,12.66
2022-10-13T19:31:43.695Z,12.79
2022-10-13T19:34:12.298Z,12.50
2022-10-13T19:36:45.259Z,12.44
2022-10-13T19:39:23.696Z,12.35
2022-10-13T19:41:52.966Z,12.30
2022-10-13T19:44:21.085Z,12.31
2022-10-13T19:46:48.723Z,12.14
2022-10-13T19:49:17.541Z,12.29
2022-10-13T19:51:46.231Z,12.14
2022-10-13T19:54:13.439Z,12.18
2022-10-13T19:56:45.143Z,12.02
2022-10-13T19:59:12.016Z,12.04
2022-10-13T20:01:41.087Z,11.99
2022-10-13T20:04:14.319Z,12.52
2022-10-13T20:06:44.281Z,12.76
2022-10-13T20:09:11.386Z,12.82
2022-10-13T20:11:38.577Z,13.14
2022-10-13T20:14:05.579Z,13.35
2022-10-13T20:16:32.447Z,13.40
2022-10-13T20:19:00.760Z,13.51
2022-10-13T20:21:28.345Z,13.65
2022-10-13T20:23:55.356Z,13.52
2022-10-13T20:26:23.098Z,13.84
2022-10-13T20:28:53.043Z,13.91
2022-10-13T20:31:21.919Z,13.64
2022-10-13T20:33:52.910Z,13.95
2022-10-13T20:36:20.960Z,13.72
2022-10-13T20:38:49.390Z,13.63
2022-10-13T20:41:23.181Z,13.80
2022-10-13T20:43:51.068Z,13.81
2022-10-13T20:46:20.523Z,13.89
2022-10-13T20:49:09.902Z,14.00
2022-10-13T20:51:35.789Z,14.05
2022-10-13T20:54:02.697Z,14.20
2022-10-13T20:56:29.952Z,14.16
2022-10-13T20:58:57.325Z,14.11
2022-10-13T21:01:24.265Z,14.19
2022-10-13T21:03:52.918Z,14.14
2022-10-13T21:06:20.414Z,14.15
2022-10-13T21:08:47.614Z,14.13
2022-10-13T21:11:16.451Z,13.71
2022-10-13T21:13:44.639Z,13.96
2022-10-13T21:16:16.410Z,13.89
2022-10-13T21:18:49.187Z,14.15
2022-10-13T21:21:18.809Z,14.22
2022-10-13T21:23:55.998Z,14.03
2022-10-13T21:26:24.566Z,14.12
2022-10-13T21:28:52.276Z,13.77
2022-10-13T21:31:21.667Z,13.82
2022-10-13T21:33:49.656Z,14.08
2022-10-13T21:36:22.944Z,14.06
2022-10-13T21:38:55.464Z,13.83
2022-10-13T21:41:23.244Z,13.93
2022-10-13T21:43:51.794Z,13.81
2022-10-13T21:46:29.494Z,14.02
2022-10-13T21:48:58.898Z,14.10
2022-10-13T21:51:30.933Z,14.00
2022-10-13T21:54:04.170Z,14.12
2022-10-13T21:56:31.847Z,13.79
2022-10-13T21:59:00.101Z,14.01
2022-10-13T22:01:27.513Z,14.15
2022-10-13T22:03:57.217Z,13.79
2022-10-13T22:06:28.309Z,14.10
2022-10-13T22:08:57.856Z,14.11
2022-10-13T22:11:27.041Z,13.90
2022-10-13T22:13:56.044Z,13.83
2022-10-13T22:16:25.192Z,13.37
2022-10-13T22:18:54.122Z,13.23
2022-10-13T22:21:24.152Z,13.53
2022-10-13T22:23:51.235Z,13.87
2022-10-13T22:26:19.147Z,13.97
2022-10-13T22:28:48.562Z,14.03
2022-10-13T22:31:15.566Z,13.81
2022-10-13T22:33:44.116Z,14.03
2022-10-13T22:36:17.844Z,13.99
2022-10-13T22:38:46.688Z,13.88
2022-10-13T22:41:15.246Z,13.66
2022-10-13T22:43:44.415Z,13.68
2022-10-13T22:46:12.732Z,13.87
2022-10-13T22:48:41.137Z,13.82
2022-10-13T22:51:16.767Z,13.68
2022-10-13T22:53:44.703Z,13.61
2022-10-13T22:56:14.275Z,13.66
2022-10-13T22:58:41.339Z,13.45
2022-10-13T23:01:11.103Z,13.77
2022-10-13T23:03:39.021Z,13.50
2022-10-13T23:06:07.579Z,13.70
2022-10-13T23:08:35.290Z,13.65
2022-10-13T23:11:02.181Z,13.78
2022-10-13T23:13:29.154Z,13.87
2022-10-13T23:16:03.658Z,13.82
2022-10-13T23:18:34.587Z,13.99
2022-10-13T23:21:09.746Z,14.13
2022-10-13T23:23:36.850Z,13.85
2022-10-13T23:26:09.201Z,13.75
2022-10-13T23:28:36.621Z,14.01
2022-10-13T23:31:06.889Z,13.84
2022-10-13T23:33:34.217Z,13.89
2022-10-13T23:36:02.540Z,13.51
2022-10-13T23:38:31.006Z,13.42
2022-10-13T23:41:10.112Z,13.72
2022-10-13T23:43:38.897Z,13.57
2022-10-13T23:46:06.061Z,13.65
2022-10-13T23:48:33.034Z,13.45
2022-10-13T23:51:09.149Z,13.69
2022-10-13T23:53:38.194Z,13.86
2022-10-13T23:56:06.609Z,14.04
2022-10-13T23:58:36.726Z,13.77
